createdAt,value
2019-04-21T00:01:55.955Z,164.57
2019-04-21T00:04:38.029Z,163.32
2019-04-21T00:07:13.175Z,162.53
2019-04-21T00:09:50.666Z,164.37
2019-04-21T00:12:07.466Z,162.95
2019-04-21T00:14:31.492Z,164.40
2019-04-21T00:16:57.530Z,162.92
2019-04-21T00:19:28.805Z,163.80
2019-04-21T00:22:05.840Z,164.28
2019-04-21T00:24:39.842Z,163.75
2019-04-21T00:27:09.675Z,164.13
2019-04-21T00:32:07.315Z,164.35
2019-04-21T00:34:21.784Z,163.80
2019-04-21T00:37:00.094Z,162.57
2019-04-21T00:39:49.084Z,163.20
2019-04-21T00:42:08.416Z,163.20
2019-04-21T00:44:28.395Z,163.60
2019-04-21T00:47:04.146Z,163.68
2019-04-21T00:49:34.370Z,163.45
2019-04-21T00:52:37.965Z,165.65
2019-04-21T00:55:11.007Z,162.65
2019-04-21T00:57:35.588Z,162.65
2019-04-21T01:00:00.810Z,163.43
2019-04-21T01:02:29.754Z,163.18
2019-04-21T01:05:02.087Z,165.45
2019-04-21T01:07:30.535Z,164.18
2019-04-21T01:09:48.607Z,163.95
2019-04-21T01:12:29.794Z,164.85
2019-04-21T01:14:55.383Z,163.90
2019-04-21T01:17:21.718Z,163.43
2019-04-21T01:19:46.421Z,163.60
2019-04-21T01:22:01.371Z,163.92
2019-04-21T01:24:34.458Z,163.22
2019-04-21T01:27:11.142Z,162.77
2019-04-21T01:29:58.413Z,163.80
2019-04-21T01:32:39.047Z,164.57
2019-04-21T01:34:45.556Z,163.62
2019-04-21T01:37:15.912Z,163.87
2019-04-21T01:39:58.504Z,163.32
2019-04-21T01:42:15.867Z,162.97
2019-04-21T01:44:49.888Z,163.75
2019-04-21T01:47:10.239Z,163.82
2019-04-21T01:49:34.931Z,161.68
2019-04-21T01:52:26.941Z,162.25
2019-04-21T01:55:25.079Z,161.95
2019-04-21T01:58:06.018Z,162.40
2019-04-21T02:00:51.795Z,162.45
2019-04-21T02:03:37.454Z,162.12
2019-04-21T02:05:54.948Z,162.18
2019-04-21T02:08:11.207Z,163.72
2019-04-21T02:10:49.809Z,163.45
2019-04-21T02:13:11.828Z,162.43
2019-04-21T02:15:46.998Z,163.37
2019-04-21T02:18:13.483Z,163.52
2019-04-21T02:20:32.713Z,164.05
2019-04-21T02:23:34.745Z,161.85
2019-04-21T02:25:46.602Z,162.88
2019-04-21T02:28:24.494Z,162.35
2019-04-21T02:31:05.957Z,162.97
2019-04-21T02:36:04.830Z,163.43
2019-04-21T02:38:34.604Z,163.97
2019-04-21T02:43:36.514Z,165.05
2019-04-21T02:45:56.118Z,164.65
2019-04-21T02:53:30.570Z,163.10
2019-04-21T02:55:50.868Z,163.10
2019-04-21T02:58:41.645Z,163.03
2019-04-21T03:01:24.579Z,162.75
2019-04-21T03:04:04.917Z,162.85
2019-04-21T03:06:54.165Z,163.22
2019-04-21T03:09:18.302Z,165.18
2019-04-21T03:11:49.809Z,165.12
2019-04-21T03:14:16.065Z,163.80
2019-04-21T03:16:40.453Z,163.77
2019-04-21T03:19:33.152Z,163.70
2019-04-21T03:21:48.920Z,162.62
2019-04-21T03:24:24.700Z,163.60
2019-04-21T03:27:01.048Z,163.30
2019-04-21T03:29:22.773Z,165.03
2019-04-21T03:37:02.734Z,161.75
2019-04-21T03:39:09.550Z,163.43
2019-04-21T03:41:52.586Z,163.10
2019-04-21T03:46:43.870Z,162.47
2019-04-21T03:49:28.139Z,162.47
2019-04-21T03:51:37.456Z,161.57
2019-04-21T03:59:09.502Z,162.77
2019-04-21T04:04:56.892Z,163.05
2019-04-21T04:10:07.698Z,162.05
2019-04-21T04:12:36.571Z,162.47
2019-04-21T04:17:38.737Z,162.18
2019-04-21T04:20:09.028Z,162.07
2019-04-21T04:22:41.265Z,164.07
2019-04-21T04:25:19.167Z,162.88
2019-04-21T04:27:51.297Z,164.93
2019-04-21T04:30:21.679Z,163.37
2019-04-21T04:32:34.705Z,162.85
2019-04-21T04:35:10.350Z,161.82
2019-04-21T04:40:20.905Z,163.70
2019-04-21T04:42:55.947Z,162.27
2019-04-21T04:45:34.595Z,162.20
2019-04-21T04:48:03.523Z,161.95
2019-04-21T04:50:41.070Z,161.62
2019-04-21T04:55:38.945Z,161.45
2019-04-21T04:58:07.542Z,162.92
2019-04-21T05:00:48.055Z,164.25
2019-04-21T05:03:05.466Z,163.97
2019-04-21T05:06:42.449Z,163.57
2019-04-21T05:14:13.476Z,163.12
2019-04-21T05:16:56.013Z,162.92
2019-04-21T05:19:20.902Z,164.05
2019-04-21T05:22:04.941Z,163.55
2019-04-21T05:24:09.727Z,163.68
2019-04-21T05:26:33.169Z,164.52
2019-04-21T05:29:04.274Z,163.68
2019-04-21T05:32:12.834Z,163.25
2019-04-21T05:34:28.767Z,162.92
2019-04-21T05:37:20.203Z,162.82
2019-04-21T05:39:57.851Z,164.18
2019-04-21T05:42:27.423Z,163.47
2019-04-21T05:45:16.067Z,164.28
2019-04-21T05:47:57.866Z,163.25
2019-04-21T05:50:20.508Z,166.10
2019-04-21T05:52:53.516Z,163.50
2019-04-21T05:55:35.954Z,163.47
2019-04-21T05:58:02.659Z,163.75
2019-04-21T06:00:54.627Z,165.15
2019-04-21T06:03:05.404Z,163.47
2019-04-21T06:08:10.373Z,163.68
2019-04-21T06:10:43.650Z,165.82
2019-04-21T06:13:05.808Z,165.45
2019-04-21T06:15:36.124Z,165.75
2019-04-21T06:18:05.038Z,166.07
2019-04-21T06:20:37.055Z,165.15
2019-04-21T06:23:03.077Z,165.47
2019-04-21T06:28:03.563Z,165.30
2019-04-21T06:30:45.508Z,164.93
2019-04-21T06:33:01.892Z,165.68
2019-04-21T06:36:12.287Z,162.70
2019-04-21T06:38:54.491Z,163.62
2019-04-21T06:41:13.494Z,164.88
2019-04-21T06:43:49.974Z,164.88
2019-04-21T06:46:10.913Z,165.00
2019-04-21T06:48:42.680Z,166.77
2019-04-21T06:51:16.699Z,164.95
2019-04-21T06:53:44.373Z,166.75
2019-04-21T06:56:15.462Z,167.15
2019-04-21T06:58:40.029Z,167.13
2019-04-21T07:01:10.280Z,168.30
2019-04-21T07:03:40.476Z,166.18
2019-04-21T07:06:08.176Z,168.25
2019-04-21T07:08:44.687Z,169.15
2019-04-21T07:11:03.535Z,170.10
2019-04-21T07:13:31.233Z,165.77
2019-04-21T07:16:07.263Z,167.90
2019-04-21T07:18:36.487Z,166.97
2019-04-21T07:21:00.065Z,168.72
2019-04-21T07:23:32.361Z,167.53
2019-04-21T07:26:00.461Z,168.52
2019-04-21T07:28:31.945Z,165.73
2019-04-21T07:31:07.941Z,167.85
2019-04-21T07:35:55.471Z,167.30
2019-04-21T07:38:22.363Z,167.35
2019-04-21T07:40:48.368Z,167.30
2019-04-21T07:43:18.370Z,167.43
2019-04-21T07:45:45.909Z,168.13
2019-04-21T07:48:24.714Z,168.52
2019-04-21T07:51:17.367Z,170.12
2019-04-21T07:53:55.724Z,168.20
2019-04-21T07:56:07.298Z,170.47
2019-04-21T07:58:53.463Z,169.20
2019-04-21T08:03:49.076Z,171.00
2019-04-21T08:06:22.783Z,173.07
2019-04-21T08:08:51.053Z,168.65
2019-04-21T08:11:16.421Z,170.70
2019-04-21T08:13:47.313Z,169.40
2019-04-21T08:16:22.471Z,170.65
2019-04-21T08:18:49.547Z,169.25
2019-04-21T08:21:15.262Z,168.25
2019-04-21T08:23:43.610Z,167.43
2019-04-21T08:26:17.401Z,169.90
2019-04-21T08:28:47.478Z,170.22
2019-04-21T08:31:16.877Z,169.32
2019-04-21T08:33:56.466Z,168.50
2019-04-21T08:36:25.445Z,171.37
2019-04-21T08:38:51.490Z,168.25
2019-04-21T08:41:15.232Z,172.22
2019-04-21T08:46:12.970Z,171.15
2019-04-21T08:48:43.966Z,169.28
2019-04-21T08:51:26.154Z,170.38
2019-04-21T08:53:42.771Z,171.02
2019-04-21T08:56:18.192Z,170.55
2019-04-21T08:59:02.274Z,168.68
2019-04-21T09:01:55.488Z,169.05
2019-04-21T09:04:24.524Z,170.07
2019-04-21T09:06:58.864Z,169.17
2019-04-21T09:09:23.661Z,170.07
2019-04-21T09:11:55.333Z,169.47
2019-04-21T09:14:18.894Z,169.13
2019-04-21T09:16:47.265Z,169.20
2019-04-21T09:19:14.195Z,169.05
2019-04-21T09:21:49.926Z,170.45
2019-04-21T09:24:16.189Z,172.55
2019-04-21T09:26:40.653Z,169.90
2019-04-21T09:29:05.490Z,171.90
2019-04-21T09:31:33.945Z,172.82
2019-04-21T09:34:02.329Z,167.50
2019-04-21T09:36:36.217Z,170.70
2019-04-21T09:39:03.854Z,170.22
2019-04-21T09:41:26.353Z,169.22
2019-04-21T09:43:57.583Z,170.65
2019-04-21T09:46:35.409Z,170.22
2019-04-21T09:49:04.150Z,171.43
2019-04-21T09:51:28.493Z,172.28
2019-04-21T09:54:08.328Z,173.30
2019-04-21T09:56:40.683Z,175.57
2019-04-21T09:59:10.116Z,172.43
2019-04-21T10:01:46.988Z,170.07
2019-04-21T10:04:18.678Z,174.47
2019-04-21T10:06:54.461Z,172.10
2019-04-21T10:09:33.341Z,172.87
2019-04-21T10:12:03.767Z,174.87
2019-04-21T10:14:57.415Z,171.75
2019-04-21T10:17:47.420Z,176.93
2019-04-21T10:20:24.395Z,174.00
2019-04-21T10:22:53.180Z,172.17
2019-04-21T10:25:20.827Z,174.30
2019-04-21T10:27:49.492Z,172.68
2019-04-21T10:30:17.498Z,175.47
2019-04-21T10:33:37.192Z,176.35
2019-04-21T10:36:44.853Z,173.97
2019-04-21T10:39:31.619Z,172.28
2019-04-21T10:41:59.611Z,179.65
2019-04-21T10:45:05.402Z,178.10
2019-04-21T10:47:38.878Z,179.45
2019-04-21T10:50:29.493Z,177.12
2019-04-21T10:53:04.912Z,174.38
2019-04-21T10:55:48.570Z,173.72
2019-04-21T10:58:14.424Z,183.47
2019-04-21T11:00:46.154Z,181.87
2019-04-21T11:03:46.725Z,178.65
2019-04-21T11:06:16.927Z,176.32
2019-04-21T11:08:48.884Z,176.42
2019-04-21T11:11:14.156Z,173.38
2019-04-21T11:13:44.573Z,172.25
2019-04-21T11:16:13.087Z,170.82
2019-04-21T11:18:41.956Z,174.25
2019-04-21T11:21:11.176Z,175.80
2019-04-21T11:23:38.289Z,179.30
2019-04-21T11:26:06.611Z,178.60
2019-04-21T11:28:35.035Z,180.52
2019-04-21T11:31:02.662Z,177.10
2019-04-21T11:33:45.247Z,176.65
2019-04-21T11:36:15.711Z,176.85
2019-04-21T11:39:09.839Z,180.03
2019-04-21T11:41:27.769Z,177.12
2019-04-21T11:43:57.246Z,177.22
2019-04-21T11:46:26.644Z,177.62
2019-04-21T11:49:06.431Z,181.60
2019-04-21T11:51:35.243Z,181.25
2019-04-21T11:54:02.353Z,182.50
2019-04-21T11:56:37.083Z,178.20
2019-04-21T11:59:08.045Z,173.02
2019-04-21T12:01:35.939Z,170.95
2019-04-21T12:04:09.793Z,175.90
2019-04-21T12:06:47.032Z,177.70
2019-04-21T12:09:12.099Z,172.45
2019-04-21T12:11:39.408Z,175.07
2019-04-21T12:14:07.918Z,178.80
2019-04-21T12:16:37.083Z,173.02
2019-04-21T12:19:07.188Z,173.70
2019-04-21T12:21:46.609Z,172.65
2019-04-21T12:24:04.733Z,174.72
2019-04-21T12:26:31.926Z,174.05
2019-04-21T12:29:08.086Z,180.18
2019-04-21T12:31:57.211Z,172.40
2019-04-21T12:34:25.930Z,176.93
2019-04-21T12:36:53.291Z,175.87
2019-04-21T12:39:20.889Z,173.22
2019-04-21T12:41:48.863Z,176.40
2019-04-21T12:44:16.495Z,176.90
2019-04-21T12:46:47.747Z,174.02
2019-04-21T12:49:15.950Z,175.42
2019-04-21T12:51:46.090Z,177.30
2019-04-21T12:54:21.670Z,177.78
2019-04-21T12:57:01.451Z,173.53
2019-04-21T12:59:32.465Z,175.03
2019-04-21T13:01:59.052Z,173.62
2019-04-21T13:04:27.831Z,173.40
2019-04-21T13:06:57.333Z,186.95
2019-04-21T13:09:27.444Z,178.42
2019-04-21T13:11:53.644Z,180.78
2019-04-21T13:14:23.740Z,179.50
2019-04-21T13:16:52.587Z,180.03
2019-04-21T13:19:20.970Z,175.68
2019-04-21T13:21:52.058Z,177.35
2019-04-21T13:24:19.991Z,179.97
2019-04-21T13:26:53.598Z,185.67
2019-04-21T13:29:18.414Z,185.60
2019-04-21T13:31:46.102Z,183.65
2019-04-21T13:34:13.879Z,185.50
2019-04-21T13:36:43.578Z,178.45
2019-04-21T13:42:34.210Z,177.70
2019-04-21T13:44:57.909Z,181.05
2019-04-21T13:47:26.583Z,185.37
2019-04-21T13:50:02.938Z,185.85
2019-04-21T13:52:31.016Z,182.35
2019-04-21T13:55:01.409Z,178.40
2019-04-21T13:57:38.701Z,179.32
2019-04-21T14:00:08.960Z,181.20
2019-04-21T14:02:38.656Z,181.32
2019-04-21T14:05:08.565Z,177.55
2019-04-21T14:07:38.483Z,174.07
2019-04-21T14:10:08.446Z,173.82
2019-04-21T14:12:36.188Z,176.18
2019-04-21T14:15:15.558Z,175.30
2019-04-21T14:17:50.943Z,176.87
2019-04-21T14:20:19.553Z,173.95
2019-04-21T14:22:46.676Z,174.20
2019-04-21T14:25:15.351Z,175.82
2019-04-21T14:27:44.306Z,177.72
2019-04-21T14:30:12.541Z,177.75
2019-04-21T14:32:40.172Z,180.25
2019-04-21T14:35:10.940Z,183.20
2019-04-21T14:37:42.460Z,181.78
2019-04-21T14:40:14.600Z,182.45
2019-04-21T14:42:40.213Z,179.80
2019-04-21T14:45:09.895Z,175.42
2019-04-21T14:47:53.912Z,181.02
2019-04-21T14:50:48.087Z,180.55
2019-04-21T14:53:26.059Z,175.12
2019-04-21T14:55:55.316Z,178.90
2019-04-21T14:58:23.403Z,181.22
2019-04-21T15:00:57.912Z,184.00
2019-04-21T15:03:25.868Z,181.87
2019-04-21T15:05:55.819Z,178.55
2019-04-21T15:08:22.884Z,179.80
2019-04-21T15:10:50.291Z,184.95
2019-04-21T15:13:17.461Z,177.70
2019-04-21T15:15:45.689Z,183.15
2019-04-21T15:18:12.979Z,181.90
2019-04-21T15:20:42.789Z,183.20
2019-04-21T15:23:14.993Z,182.57
2019-04-21T15:25:43.894Z,186.10
2019-04-21T15:28:17.875Z,182.27
2019-04-21T15:31:08.382Z,175.85
2019-04-21T15:33:41.287Z,175.40
2019-04-21T15:36:11.267Z,177.15
2019-04-21T15:38:45.772Z,178.12
2019-04-21T15:41:22.666Z,175.60
2019-04-21T15:44:01.273Z,173.38
2019-04-21T15:46:34.739Z,171.47
2019-04-21T15:49:04.950Z,174.18
2019-04-21T15:51:32.112Z,173.93
2019-04-21T15:54:02.705Z,175.93
2019-04-21T15:56:51.075Z,173.35
2019-04-21T15:59:56.062Z,179.93
2019-04-21T16:02:44.520Z,180.07
2019-04-21T16:05:13.013Z,174.18
2019-04-21T16:07:40.408Z,172.02
2019-04-21T16:10:11.634Z,172.98
2019-04-21T16:12:40.149Z,177.97
2019-04-21T16:15:08.535Z,174.55
2019-04-21T16:17:37.306Z,174.75
2019-04-21T16:20:06.159Z,177.35
2019-04-21T16:22:34.706Z,178.82
2019-04-21T16:25:03.354Z,177.70
2019-04-21T16:27:30.541Z,177.05
2019-04-21T16:29:57.716Z,173.60
2019-04-21T16:32:26.027Z,176.02
2019-04-21T16:35:01.523Z,172.30
2019-04-21T16:37:23.612Z,178.45
2019-04-21T16:39:51.651Z,177.82
2019-04-21T16:42:20.347Z,175.10
2019-04-21T16:44:48.915Z,172.37
2019-04-21T16:47:19.399Z,177.43
2019-04-21T16:49:47.554Z,176.30
2019-04-21T16:52:18.360Z,173.30
2019-04-21T16:55:13.182Z,175.93
2019-04-21T16:57:43.896Z,182.10
2019-04-21T17:00:26.965Z,178.20
2019-04-21T17:02:46.577Z,178.25
2019-04-21T17:05:14.372Z,176.42
2019-04-21T17:07:42.907Z,176.93
2019-04-21T17:10:12.817Z,180.80
2019-04-21T17:12:41.717Z,177.22
2019-04-21T17:15:32.285Z,177.53
2019-04-21T17:18:04.280Z,174.68
2019-04-21T17:20:27.864Z,174.20
2019-04-21T17:22:44.096Z,173.45
2019-04-21T17:25:18.129Z,174.77
2019-04-21T17:27:56.890Z,171.05
2019-04-21T17:30:36.474Z,175.00
2019-04-21T17:33:05.655Z,173.15
2019-04-21T17:35:35.236Z,173.02
2019-04-21T17:38:03.887Z,175.32
2019-04-21T17:40:33.784Z,175.75
2019-04-21T17:43:07.565Z,175.82
2019-04-21T17:45:35.130Z,173.82
2019-04-21T17:48:06.006Z,174.12
2019-04-21T17:50:57.561Z,171.90
2019-04-21T17:53:38.219Z,174.18
2019-04-21T17:56:23.473Z,180.70
2019-04-21T17:58:58.465Z,174.07
2019-04-21T18:01:32.254Z,172.37
2019-04-21T18:04:06.290Z,173.00
2019-04-21T18:06:30.947Z,174.23
2019-04-21T18:09:12.627Z,170.65
2019-04-21T18:11:28.948Z,171.30
2019-04-21T18:13:41.996Z,173.05
2019-04-21T18:16:20.705Z,169.00
2019-04-21T18:18:46.651Z,168.47
2019-04-21T18:21:22.538Z,169.13
2019-04-21T18:24:04.968Z,170.12
2019-04-21T18:26:35.020Z,170.82
2019-04-21T18:28:53.837Z,171.65
2019-04-21T18:31:20.930Z,169.80
2019-04-21T18:34:03.502Z,169.80
2019-04-21T18:36:34.923Z,169.87
2019-04-21T18:39:38.228Z,166.75
2019-04-21T18:42:17.494Z,169.53
2019-04-21T18:45:28.442Z,169.62
2019-04-21T18:47:48.931Z,169.22
2019-04-21T18:50:24.157Z,167.37
2019-04-21T18:53:13.033Z,166.22
2019-04-21T18:55:37.331Z,166.35
2019-04-21T18:57:59.055Z,164.13
2019-04-21T19:00:32.787Z,166.92
2019-04-21T19:02:58.281Z,169.25
2019-04-21T19:05:27.903Z,164.90
2019-04-21T19:08:15.173Z,164.52
2019-04-21T19:10:53.666Z,164.97
2019-04-21T19:16:03.250Z,163.95
2019-04-21T19:20:56.706Z,163.65
2019-04-21T19:23:33.903Z,163.92
2019-04-21T19:26:11.089Z,163.90
2019-04-21T19:28:26.971Z,167.07
2019-04-21T19:30:57.653Z,165.18
2019-04-21T19:33:22.437Z,164.13
2019-04-21T19:35:37.269Z,165.28
2019-04-21T19:38:11.967Z,166.12
2019-04-21T19:40:52.226Z,165.37
2019-04-21T19:43:31.468Z,164.77
2019-04-21T19:45:54.246Z,165.22
2019-04-21T19:48:25.213Z,163.97
2019-04-21T19:50:57.815Z,165.15
2019-04-21T19:53:21.350Z,164.18
2019-04-21T19:55:36.181Z,165.50
2019-04-21T19:58:03.528Z,163.03
2019-04-21T20:00:32.956Z,165.00
2019-04-21T20:03:06.137Z,163.97
2019-04-21T20:05:41.799Z,165.10
2019-04-21T20:08:17.691Z,164.55
2019-04-21T20:10:48.498Z,163.80
2019-04-21T20:13:25.968Z,164.28
2019-04-21T20:15:51.068Z,163.90
2019-04-21T20:18:16.434Z,164.47
2019-04-21T20:20:33.029Z,164.72
2019-04-21T20:23:08.817Z,162.92
2019-04-21T20:25:41.614Z,163.72
2019-04-21T20:28:14.761Z,162.92
2019-04-21T20:30:49.003Z,162.00
2019-04-21T20:33:41.664Z,163.90
2019-04-21T20:36:09.682Z,163.47
2019-04-21T20:38:16.029Z,162.03
2019-04-21T20:40:45.769Z,163.22
2019-04-21T20:43:28.478Z,161.73
2019-04-21T20:46:00.503Z,166.50
2019-04-21T20:48:18.231Z,166.15
2019-04-21T20:50:57.260Z,163.07
2019-04-21T20:53:27.488Z,163.72
2019-04-21T20:55:58.143Z,162.15
2019-04-21T20:58:31.887Z,161.00
2019-04-21T21:01:20.871Z,161.73
2019-04-21T21:03:34.885Z,160.82
2019-04-21T21:06:00.317Z,161.28
2019-04-21T21:08:36.001Z,162.53
2019-04-21T21:10:58.710Z,161.10
2019-04-21T21:13:39.475Z,160.18
2019-04-21T21:16:12.143Z,160.85
2019-04-21T21:18:48.666Z,160.28
2019-04-21T21:21:09.566Z,162.40
2019-04-21T21:23:38.781Z,160.65
2019-04-21T21:26:09.860Z,160.28
2019-04-21T21:28:38.026Z,159.03
2019-04-21T21:31:07.422Z,159.95
2019-04-21T21:33:46.724Z,160.10
2019-04-21T21:36:09.127Z,159.65
2019-04-21T21:38:36.317Z,159.63
2019-04-21T21:40:57.210Z,159.82
2019-04-21T21:43:21.509Z,159.48
2019-04-21T21:45:51.905Z,158.35
2019-04-21T21:48:31.849Z,158.40
2019-04-21T21:50:56.620Z,159.80
2019-04-21T21:53:19.770Z,159.87
2019-04-21T21:55:46.715Z,161.60
2019-04-21T21:58:15.642Z,157.80
2019-04-21T22:00:49.969Z,160.37
2019-04-21T22:03:24.444Z,159.82
2019-04-21T22:05:53.550Z,159.80
2019-04-21T22:08:14.437Z,159.18
2019-04-21T22:10:43.186Z,160.63
2019-04-21T22:13:17.762Z,160.40
2019-04-21T22:15:43.576Z,159.50
2019-04-21T22:18:28.521Z,158.97
2019-04-21T22:20:55.040Z,159.15
2019-04-21T22:23:13.965Z,160.93
2019-04-21T22:25:41.844Z,159.18
2019-04-21T22:28:09.478Z,158.70
2019-04-21T22:30:42.729Z,160.97
2019-04-21T22:33:08.928Z,159.27
2019-04-21T22:35:42.494Z,160.78
2019-04-21T22:38:21.129Z,159.78
2019-04-21T22:40:47.778Z,160.22
2019-04-21T22:43:11.386Z,158.72
2019-04-21T22:45:31.570Z,160.48
2019-04-21T22:48:13.541Z,160.60
2019-04-21T22:50:35.730Z,158.90
2019-04-21T22:53:07.152Z,161.03
2019-04-21T22:55:35.086Z,160.88
2019-04-21T22:58:05.480Z,158.97
2019-04-21T23:00:42.915Z,161.03
2019-04-21T23:03:09.874Z,160.85
2019-04-21T23:05:36.282Z,162.12
2019-04-21T23:08:03.440Z,162.82
2019-04-21T23:10:29.521Z,161.65
2019-04-21T23:12:59.550Z,162.30
2019-04-21T23:15:34.605Z,158.90
2019-04-21T23:18:12.072Z,158.75
2019-04-21T23:20:46.176Z,159.25
2019-04-21T23:23:16.362Z,158.97
2019-04-21T23:25:42.557Z,160.07
2019-04-21T23:28:11.513Z,159.63
2019-04-21T23:30:50.291Z,158.82
2019-04-21T23:33:02.425Z,159.70
2019-04-21T23:35:30.413Z,162.20
2019-04-21T23:37:59.729Z,160.63
2019-04-21T23:40:25.456Z,160.40
2019-04-21T23:42:51.301Z,159.32
2019-04-21T23:45:25.252Z,159.82
2019-04-21T23:48:10.714Z,160.55
2019-04-21T23:50:35.255Z,160.32
2019-04-21T23:52:55.421Z,160.88
2019-04-21T23:55:23.249Z,161.37
2019-04-21T23:58:03.386Z,161.73
